| time (UTC) | temp C | wind direction | speed KPH | gust KPH | rain 1hr cm | rain 24hr cm | rain mn cm | humidity % | barometer mb |
| 20260507050039 | 12 | 0.0 | 0.0 | 0.03 | 0.43 | 0.03 | 91 | 1005.2 | |
| 20260507044524 | 13 | 0.0 | 0.0 | 0.03 | 0.43 | 0.03 | 92 | 1005.4 | |
| 20260507043018 | 13 | 0.0 | 0.0 | 0.03 | 0.43 | 0.03 | 92 | 1005.0 | |
| 20260507041522 | 13 | 0.0 | 0.0 | 0.03 | 0.43 | 0.03 | 94 | 1004.9 | |
| 20260507040006 | 13 | 0.0 | 0.0 | 0.00 | 0.41 | 0.00 | 94 | 1004.9 | |
| 20260507034500 | 13 | 0.0 | 0.0 | 0.00 | 0.41 | 0.41 | 94 | 1004.7 | |
| 20260507033056 | 14 | 0.0 | 0.0 | 0.00 | 0.41 | 0.41 | 94 | 1004.4 | |
| 20260507031550 | 14 | 0.0 | 0.0 | 0.00 | 0.41 | 0.41 | 94 | 1004.3 | |
| 20260507030044 | 14 | 0.0 | 0.0 | 0.00 | 0.41 | 0.41 | 95 | 1004.2 | |
| 20260507024538 | 14 | 0.0 | 0.0 | 0.00 | 0.41 | 0.41 | 94 | 1003.9 | |
| 20260507023032 | 14 | 0.0 | 0.0 | 0.00 | 0.41 | 0.41 | 94 | 1004.0 | |
| 20260507021527 | 14 | 0.0 | 0.0 | 0.00 | 0.41 | 0.41 | 94 | 1003.9 | |
| 20260507020020 | 14 | 0.0 | 0.0 | 0.00 | 0.41 | 0.41 | 94 | 1003.7 | |
| 20260507014511 | 14 | 0.0 | 0.0 | 0.03 | 0.41 | 0.41 | 94 | 1003.9 | |
| 20260507013006 | 14 | 0.0 | 0.0 | 0.03 | 0.41 | 0.41 | 94 | 1003.9 | |
| 20260507011556 | 14 | 0.0 | 0.0 | 0.03 | 0.41 | 0.41 | 94 | 1004.1 | |
| 20260507010100 | 14 | 0.0 | 0.0 | 0.03 | 0.41 | 0.41 | 94 | 1004.1 | |
| 20260507004544 | 14 | 0.0 | 0.0 | 0.00 | 0.38 | 0.38 | 94 | 1004.0 | |
| 20260507003039 | 14 | 0.0 | 0.0 | 0.00 | 0.38 | 0.38 | 94 | 1004.0 | |
| 20260507001533 | 14 | 0.0 | 0.0 | 0.00 | 0.38 | 0.38 | 94 | 1003.8 | |
| 20260507000027 | 14 | 0.0 | 0.0 | 0.08 | 0.38 | 0.38 | 95 | 1003.8 | |
| 20260506234522 | 14 | 0.0 | 0.0 | 0.10 | 0.38 | 0.38 | 94 | 1003.6 | |
| 20260506233016 | 14 | 0.0 | 0.0 | 0.10 | 0.38 | 0.38 | 94 | 1003.5 | |
| 20260506231509 | 15 | 0.0 | 0.0 | 0.13 | 0.38 | 0.38 | 94 | 1003.4 | |
| 20260506230010 | 15 | 0.0 | 0.0 | 0.05 | 0.28 | 0.28 | 94 | 1003.7 | |
| 20260506224559 | 15 | 0.0 | 0.0 | 0.05 | 0.28 | 0.28 | 94 | 1003.9 | |
| 20260506223054 | 15 | 0.0 | 0.0 | 0.05 | 0.28 | 0.28 | 94 | 1003.9 | |
| 20260506221607 | 15 | 0.0 | 0.0 | 0.03 | 0.25 | 0.25 | 93 | 1003.9 | |
| 20260506220052 | 15 | 0.0 | 0.0 | 0.03 | 0.23 | 0.23 | 93 | 1004.0 | |
| 20260506214539 | 15 | 0.0 | 0.0 | 0.03 | 0.23 | 0.23 | 93 | 1004.1 | |
| 20260506213030 | 15 | 0.0 | 0.0 | 0.03 | 0.23 | 0.23 | 92 | 1004.3 | |
| 20260506211530 | 15 | 116 | 4.8 | 16.1 | 0.05 | 0.23 | 0.23 | 92 | 1004.6 |
| 20260506210026 | 15 | 144 | 6.4 | 24.1 | 0.05 | 0.20 | 0.20 | 92 | 1004.5 |
| 20260506204520 | 15 | 128 | 6.4 | 20.9 | 0.08 | 0.20 | 0.20 | 92 | 1004.7 |
| 20260506203017 | 15 | 148 | 9.7 | 27.4 | 0.08 | 0.18 | 0.18 | 91 | 1004.9 |
| 20260506201526 | 15 | 167 | 4.8 | 17.7 | 0.08 | 0.15 | 0.15 | 91 | 1004.8 |
| 20260506200011 | 16 | 163 | 1.6 | 20.9 | 0.10 | 0.15 | 0.15 | 91 | 1004.8 |
| 20260506194510 | 16 | 144 | 3.2 | 16.1 | 0.13 | 0.13 | 0.13 | 90 | 1004.8 |
| 20260506193007 | 16 | 161 | 4.8 | 20.9 | 0.10 | 0.10 | 0.10 | 88 | 1004.7 |
| 20260506191502 | 17 | 150 | 3.2 | 16.1 | 0.08 | 0.08 | 0.08 | 87 | 1004.7 |
| 20260506190058 | 17 | 168 | 4.8 | 20.9 | 0.05 | 0.05 | 0.05 | 81 | 1004.8 |
| 20260506184627 | 18 | 129 | 4.8 | 20.9 | 0.00 | 0.00 | 0.00 | 74 | 1004.9 |
| 20260506183055 | 20 | 166 | 9.7 | 29.0 | 0.00 | 0.00 | 0.00 | 68 | 1005.0 |
| 20260506181553 | 21 | 179 | 11.3 | 25.7 | 0.00 | 0.00 | 0.00 | 61 | 1005.0 |
| 20260506180048 | 21 | 209 | 9.7 | 30.6 | 0.00 | 0.00 | 0.00 | 56 | 1004.9 |
| 20260506174540 | 22 | 163 | 12.9 | 45.1 | 0.00 | 0.00 | 0.00 | 54 | 1005.1 |
| 20260506173044 | 22 | 186 | 12.9 | 33.8 | 0.00 | 0.00 | 0.00 | 54 | 1005.2 |
| 20260506171548 | 22 | 169 | 14.5 | 38.6 | 0.00 | 0.00 | 0.00 | 53 | 1005.2 |
| 20260506170035 | 23 | 148 | 4.8 | 22.5 | 0.00 | 0.00 | 0.00 | 55 | 1005.2 |
| 20260506164526 | 22 | 151 | 9.7 | 25.7 | 0.00 | 0.00 | 0.00 | 57 | 1005.2 |
| 20260506163027 | 21 | 107 | 6.4 | 25.7 | 0.00 | 0.00 | 0.00 | 58 | 1005.9 |
| 20260506161521 | 21 | 188 | 8.0 | 24.1 | 0.00 | 0.00 | 0.00 | 59 | 1006.0 |
| 20260506160021 | 21 | 155 | 6.4 | 27.4 | 0.00 | 0.00 | 0.00 | 60 | 1006.2 |
| 20260506154519 | 21 | 142 | 8.0 | 24.1 | 0.00 | 0.00 | 0.00 | 58 | 1006.5 |
| 20260506153014 | 21 | 154 | 4.8 | 24.1 | 0.00 | 0.00 | 0.00 | 59 | 1006.7 |
| 20260506151511 | 21 | 157 | 4.8 | 20.9 | 0.00 | 0.00 | 0.00 | 59 | 1006.9 |
| 20260506150007 | 21 | 188 | 11.3 | 25.7 | 0.00 | 0.00 | 0.00 | 60 | 1006.9 |
| 20260506144604 | 21 | 209 | 3.2 | 17.7 | 0.00 | 0.00 | 0.00 | 63 | 1007.1 |
| 20260506143056 | 21 | 144 | 3.2 | 30.6 | 0.00 | 0.00 | 0.00 | 64 | 1007.1 |
| 20260506141554 | 20 | 161 | 8.0 | 38.6 | 0.00 | 0.00 | 0.00 | 64 | 1006.9 |
| 20260506140053 | 20 | 206 | 6.4 | 25.7 | 0.00 | 0.00 | 0.00 | 66 | 1006.9 |
| 20260506134547 | 20 | 156 | 14.5 | 40.2 | 0.00 | 0.00 | 0.00 | 67 | 1007.0 |
| 20260506133044 | 19 | 135 | 3.2 | 20.9 | 0.00 | 0.00 | 0.00 | 70 | 1007.3 |
| 20260506131548 | 18 | 166 | 6.4 | 20.9 | 0.00 | 0.00 | 0.00 | 71 | 1007.6 |
| 20260506130038 | 18 | 185 | 4.8 | 22.5 | 0.00 | 0.00 | 0.00 | 71 | 1007.6 |
| 20260506124535 | 18 | 182 | 1.6 | 16.1 | 0.00 | 0.00 | 0.00 | 72 | 1007.6 |
| 20260506123030 | 18 | 183 | 6.4 | 17.7 | 0.00 | 0.00 | 0.00 | 75 | 1007.6 |
| 20260506121525 | 17 | 120 | 3.2 | 14.5 | 0.00 | 0.00 | 0.00 | 76 | 1007.8 |
| 20260506120024 | 17 | 141 | 8.0 | 17.7 | 0.00 | 0.00 | 0.00 | 78 | 1007.6 |
| 20260506114533 | 16 | 119 | 1.6 | 14.5 | 0.00 | 0.00 | 0.00 | 79 | 1007.9 |
| 20260506113020 | 16 | 155 | 3.2 | 20.9 | 0.00 | 0.00 | 0.00 | 79 | 1008.0 |
| 20260506111516 | 16 | 144 | 3.2 | 19.3 | 0.00 | 0.00 | 0.00 | 80 | 1008.1 |
| 20260506110015 | 15 | 119 | 3.2 | 16.1 | 0.00 | 0.00 | 0.00 | 81 | 1007.9 |
| 20260506104508 | -17 | 0.0 | 0.0 | 0.00 | 0.00 | 0.00 | 1008.0 | ||
| 20260506103100 | -17 | 0.0 | 0.0 | 0.00 | 0.00 | 0.00 | 1007.9 | ||
| 20260506101555 | -17 | 0.0 | 0.0 | 0.00 | 0.00 | 0.00 | 1008.0 | ||
| 20260506100104 | -17 | 0.0 | 0.0 | 0.00 | 0.00 | 0.00 | 1007.8 | ||
| 20260506094543 | -17 | 0.0 | 0.0 | 0.00 | 0.00 | 0.00 | 1007.9 | ||
| 20260506093037 | -17 | 0.0 | 0.0 | 0.00 | 0.00 | 0.00 | 1007.8 | ||
| 20260506091532 | -17 | 0.0 | 0.0 | 0.00 | 0.00 | 0.00 | 1007.9 | ||
| 20260506090025 | -17 | 0.0 | 0.0 | 0.00 | 0.00 | 0.00 | 1007.8 | ||
| 20260506084518 | -17 | 0.0 | 0.0 | 0.00 | 0.00 | 0.00 | 1008.1 | ||
| 20260506083012 | -17 | 0.0 | 0.0 | 0.00 | 0.00 | 0.00 | 1008.0 | ||
| 20260506081507 | -17 | 0.0 | 0.0 | 0.00 | 0.00 | 0.00 | 1008.1 | ||
| 20260506073049 | 16 | 0.0 | 0.0 | 0.00 | 0.00 | 0.00 | 74 | 1007.7 | |
| 20260506071544 | 16 | 0.0 | 0.0 | 0.00 | 0.00 | 0.00 | 73 | 1007.7 | |
| 20260506061520 | 17 | 0.0 | 0.0 | 0.00 | 0.00 | 0.00 | 69 | 1007.4 |